This is the latest recevied weather packets stored in our database for station/object KD9IXX-13. If no packets are shown the sender has not sent any weather packets the latest 10 day(s).
| Time | Temp. | Humidity | Pressure | Rain* | Wind** | Luminosity | Snow |
|---|---|---|---|---|---|---|---|
| 1777320002 | 18.33° C | 90% | 1003.5 hPa | 0 mm | - | 208 W/m² | - |
| 1777319702 | 18.89° C | 88% | 1003.6 hPa | 0 mm | - | 213 W/m² | - |
| 1777319402 | 19.44° C | 85% | 1003.2 hPa | 0 mm | - | 243 W/m² | - |
| 1777319103 | 20° C | 81% | 1003.3 hPa | 0 mm | - | 237 W/m² | - |
| 1777318802 | 20° C | 80% | 1003.1 hPa | 0 mm | - | 269 W/m² | - |
| 1777318502 | 19.44° C | 81% | 1003.1 hPa | 0 mm | - | 295 W/m² | - |
| 1777318201 | 18.89° C | 82% | 1002.9 hPa | 0 mm | - | 294 W/m² | - |
| 1777317902 | 18.33° C | 87% | 1003.2 hPa | 0 mm | - | 264 W/m² | - |
| 1777317602 | 17.78° C | 90% | 1003.7 hPa | 0 mm | - | 225 W/m² | - |
| 1777317303 | 17.22° C | 91% | 1003.5 hPa | 0 mm | - | 172 W/m² | - |
| 1777317002 | 16.67° C | 93% | 1003.8 hPa | 0 mm | - | 149 W/m² | - |
| 1777316702 | 16.11° C | 99% | 1004.1 hPa | 0 mm | - | 119 W/m² | - |
| 1777316402 | 15.56° C | 99% | 1002.4 hPa | 1.78 mm | - | 110 W/m² | - |
| 1777316102 | 15° C | 99% | 1002.2 hPa | 1.78 mm | - | 79 W/m² | - |
| 1777315802 | 14.44° C | 99% | 1004.6 hPa | 0 mm | - | 70 W/m² | - |
| 1777315502 | 14.44° C | 99% | 1005.2 hPa | 0 mm | - | 79 W/m² | - |
| 1777315202 | 14.44° C | 99% | 1006.5 hPa | 0 mm | - | 69 W/m² | - |
| 1777314902 | 13.89° C | 99% | 1007 hPa | 0 mm | - | 58 W/m² | - |
| 1777314602 | 13.89° C | 99% | 1007.7 hPa | 0 mm | - | 23 W/m² | - |
| 1777314302 | 13.89° C | 99% | 1009.2 hPa | 2.79 mm | - | 25 W/m² | - |
| 1777314002 | 13.89° C | 99% | 1009.9 hPa | 4.57 mm | - | 26 W/m² | - |
| 1777313702 | 13.89° C | 99% | 1011.2 hPa | 5.84 mm | - | 12 W/m² | - |
| 1777313402 | 13.89° C | 99% | 1011.5 hPa | 8.89 mm | - | 32 W/m² | - |
| 1777313102 | 13.89° C | 99% | 1011.9 hPa | 10.16 mm | - | 20 W/m² | - |
| 1777312802 | 13.89° C | 99% | 1012.1 hPa | 8.89 mm | - | 19 W/m² | - |
* Rain latest hour (hover to see other rain measurements)
** Current wind speed in m/s (hover to see current wind gust speed)